createdAt,value
2022-12-31T00:02:29.692Z,1.67
2022-12-31T00:05:31.761Z,0.88
2022-12-31T00:08:33.047Z,1.40
2022-12-31T00:11:35.120Z,1.45
2022-12-31T00:14:36.646Z,1.10
2022-12-31T00:17:37.914Z,1.40
2022-12-31T00:20:40.798Z,0.90
2022-12-31T00:23:42.364Z,0.73
2022-12-31T00:26:43.684Z,1.85
2022-12-31T00:29:45.055Z,0.75
2022-12-31T00:32:46.324Z,1.10
2022-12-31T00:35:47.612Z,1.05
2022-12-31T00:38:49.808Z,0.70
2022-12-31T00:41:51.078Z,1.45
2022-12-31T00:44:52.315Z,1.08
2022-12-31T00:47:53.607Z,1.00
2022-12-31T00:50:55.882Z,1.27
2022-12-31T00:53:57.536Z,1.15
2022-12-31T00:56:58.769Z,0.65
2022-12-31T01:00:00.121Z,0.65
2022-12-31T01:03:01.699Z,0.90
2022-12-31T01:06:03.313Z,0.82
2022-12-31T01:09:05.546Z,1.23
2022-12-31T01:12:06.898Z,1.35
2022-12-31T01:15:08.298Z,2.40
2022-12-31T01:18:09.547Z,1.08
2022-12-31T01:21:11.551Z,0.75
2022-12-31T01:24:13.203Z,0.80
2022-12-31T01:27:14.473Z,1.77
2022-12-31T01:30:15.718Z,1.23
2022-12-31T01:33:16.990Z,1.88
2022-12-31T01:36:25.263Z,1.60
2022-12-31T01:39:27.145Z,1.10
2022-12-31T01:42:28.407Z,1.95
2022-12-31T01:45:29.687Z,1.88
2022-12-31T01:48:30.954Z,0.98
2022-12-31T01:51:34.558Z,0.95
2022-12-31T01:54:37.936Z,0.80
2022-12-31T01:57:39.417Z,0.80
2022-12-31T02:00:40.782Z,0.73
2022-12-31T02:03:42.506Z,1.23
2022-12-31T02:06:53.113Z,1.35
2022-12-31T02:09:54.517Z,0.82
2022-12-31T02:12:55.819Z,1.90
2022-12-31T02:16:13.449Z,1.80
2022-12-31T02:19:18.384Z,1.55
2022-12-31T02:22:43.026Z,1.70
2022-12-31T02:26:10.876Z,1.70
2022-12-31T02:29:12.099Z,2.58
2022-12-31T02:32:21.669Z,1.60
2022-12-31T02:35:25.819Z,1.60
2022-12-31T02:38:32.250Z,1.13
2022-12-31T02:41:51.582Z,1.33
2022-12-31T02:44:52.893Z,1.23
2022-12-31T02:48:07.205Z,1.27
2022-12-31T02:51:28.717Z,1.08
2022-12-31T02:54:48.711Z,3.00
2022-12-31T02:58:06.642Z,1.10
2022-12-31T03:01:26.910Z,1.83
2022-12-31T03:04:31.968Z,1.00
2022-12-31T03:07:33.327Z,1.60
2022-12-31T03:10:34.819Z,1.02
2022-12-31T03:13:36.110Z,1.70
2022-12-31T03:16:37.392Z,2.83
2022-12-31T03:19:57.598Z,1.20
2022-12-31T03:22:58.838Z,1.30
2022-12-31T03:26:00.734Z,0.93
2022-12-31T03:29:01.987Z,1.20
2022-12-31T03:32:03.505Z,1.20
2022-12-31T03:35:05.442Z,1.50
2022-12-31T03:38:07.025Z,1.13
2022-12-31T03:41:09.665Z,1.35
2022-12-31T03:44:10.955Z,1.65
2022-12-31T03:47:12.193Z,2.40
2022-12-31T03:50:14.617Z,2.90
2022-12-31T03:53:15.958Z,1.98
2022-12-31T03:56:17.234Z,1.05
2022-12-31T03:59:18.516Z,0.75
2022-12-31T04:02:24.710Z,0.98
2022-12-31T04:05:29.498Z,1.02
2022-12-31T04:08:30.771Z,1.35
2022-12-31T04:11:32.106Z,2.75
2022-12-31T04:14:33.396Z,0.98
2022-12-31T04:17:34.671Z,2.40
2022-12-31T04:20:35.939Z,2.85
2022-12-31T04:23:37.281Z,1.27
2022-12-31T04:26:38.948Z,3.55
2022-12-31T04:29:40.348Z,1.95
2022-12-31T04:32:41.738Z,1.65
2022-12-31T04:35:42.990Z,1.42
2022-12-31T04:38:44.280Z,2.05
2022-12-31T04:41:45.556Z,1.88
2022-12-31T04:44:46.820Z,1.65
2022-12-31T04:47:48.071Z,0.88
2022-12-31T04:50:49.319Z,1.80
2022-12-31T04:53:50.742Z,3.35
2022-12-31T04:56:52.017Z,1.23
2022-12-31T04:59:53.310Z,1.90
2022-12-31T05:02:54.605Z,1.45
2022-12-31T05:06:00.367Z,1.77
2022-12-31T05:09:01.664Z,2.00
2022-12-31T05:12:02.995Z,0.90
2022-12-31T05:15:04.508Z,0.90
2022-12-31T05:18:06.115Z,1.92
2022-12-31T05:21:07.610Z,1.75
2022-12-31T05:24:08.949Z,0.98
2022-12-31T05:27:10.184Z,1.63
2022-12-31T05:30:11.773Z,0.98
2022-12-31T05:33:13.011Z,1.25
2022-12-31T05:36:14.629Z,1.38
2022-12-31T05:39:15.949Z,1.42
2022-12-31T05:42:17.221Z,3.13
2022-12-31T05:45:18.583Z,2.67
2022-12-31T05:48:19.869Z,1.73
2022-12-31T05:51:21.167Z,1.40
2022-12-31T05:54:22.408Z,2.33
2022-12-31T05:57:23.736Z,1.33
2022-12-31T06:00:25.014Z,1.58
2022-12-31T06:03:26.307Z,1.10
2022-12-31T06:06:27.662Z,0.95
2022-12-31T06:09:28.913Z,1.20
2022-12-31T06:12:30.225Z,0.98
2022-12-31T06:15:31.761Z,1.40
2022-12-31T06:18:33.157Z,1.38
2022-12-31T06:21:34.489Z,1.02
2022-12-31T06:24:35.778Z,1.80
2022-12-31T06:27:37.030Z,1.50
2022-12-31T06:30:38.316Z,3.03
2022-12-31T06:33:39.602Z,1.67
2022-12-31T06:36:40.962Z,1.40
2022-12-31T06:39:42.193Z,0.95
2022-12-31T06:42:43.532Z,1.23
2022-12-31T06:45:44.899Z,1.40
2022-12-31T06:48:46.193Z,1.08
2022-12-31T06:51:47.797Z,1.40
2022-12-31T06:54:49.226Z,1.35
2022-12-31T06:57:50.677Z,1.23
2022-12-31T07:01:04.742Z,1.60
2022-12-31T07:04:25.143Z,1.55
2022-12-31T07:07:32.207Z,1.48
2022-12-31T07:10:33.435Z,1.45
2022-12-31T07:13:43.032Z,1.92
2022-12-31T07:16:50.457Z,1.45
2022-12-31T07:19:57.823Z,1.45
2022-12-31T07:22:59.499Z,1.13
2022-12-31T07:26:06.739Z,1.17
2022-12-31T07:29:17.099Z,1.90
2022-12-31T07:32:26.449Z,1.77
2022-12-31T07:35:35.089Z,2.10
2022-12-31T07:38:49.897Z,1.13
2022-12-31T07:41:51.184Z,1.38
2022-12-31T07:44:56.933Z,2.03
2022-12-31T07:48:02.499Z,2.03
2022-12-31T07:51:04.332Z,2.42
2022-12-31T07:54:11.847Z,2.03
2022-12-31T07:57:16.721Z,1.50
2022-12-31T08:00:18.315Z,1.33
2022-12-31T08:03:41.505Z,0.93
2022-12-31T08:06:58.298Z,1.88
2022-12-31T08:10:17.522Z,2.50
2022-12-31T08:13:19.406Z,1.08
2022-12-31T08:16:21.748Z,1.52
2022-12-31T08:19:25.688Z,2.60
2022-12-31T08:22:38.987Z,2.55
2022-12-31T08:25:53.857Z,1.33
2022-12-31T08:28:55.126Z,1.30
2022-12-31T08:31:59.460Z,1.38
2022-12-31T08:35:03.925Z,1.00
2022-12-31T08:38:26.020Z,1.52
2022-12-31T08:41:42.933Z,1.52
2022-12-31T08:47:55.034Z,1.60
2022-12-31T08:50:59.485Z,1.27
2022-12-31T08:54:00.910Z,1.63
2022-12-31T08:57:20.865Z,1.33
2022-12-31T09:00:22.827Z,1.50
2022-12-31T09:03:33.342Z,1.20
2022-12-31T09:07:00.686Z,2.22
2022-12-31T09:10:22.278Z,1.40
2022-12-31T09:13:40.415Z,1.60
2022-12-31T09:17:08.050Z,1.40
2022-12-31T09:20:21.818Z,1.90
2022-12-31T09:23:23.321Z,1.15
2022-12-31T09:26:24.633Z,1.40
2022-12-31T09:29:44.732Z,1.92
2022-12-31T09:32:46.041Z,1.67
2022-12-31T09:35:50.911Z,1.20
2022-12-31T09:39:00.406Z,1.40
2022-12-31T09:42:12.475Z,2.13
2022-12-31T09:45:13.717Z,1.95
2022-12-31T09:48:24.176Z,1.05
2022-12-31T09:51:30.076Z,1.30
2022-12-31T09:54:46.399Z,2.13
2022-12-31T09:58:04.028Z,1.40
2022-12-31T10:01:24.207Z,2.00
2022-12-31T10:04:40.851Z,1.20
2022-12-31T10:07:53.427Z,1.60
2022-12-31T10:11:00.930Z,1.75
2022-12-31T10:14:30.582Z,1.83
2022-12-31T10:17:34.785Z,1.92
2022-12-31T10:20:54.719Z,2.22
2022-12-31T10:23:58.994Z,2.50
2022-12-31T10:27:00.288Z,1.10
2022-12-31T10:30:21.438Z,1.73
2022-12-31T10:33:36.432Z,1.50
2022-12-31T10:36:49.725Z,1.60
2022-12-31T10:40:09.184Z,2.40
2022-12-31T10:43:25.239Z,1.65
2022-12-31T10:46:38.632Z,1.98
2022-12-31T10:50:00.172Z,1.10
2022-12-31T10:53:13.668Z,3.17
2022-12-31T10:56:14.925Z,2.97
2022-12-31T10:59:31.576Z,1.98
2022-12-31T11:02:38.996Z,2.17
2022-12-31T11:05:59.153Z,2.55
2022-12-31T11:09:00.476Z,1.38
2022-12-31T11:12:20.537Z,3.22
2022-12-31T11:15:21.842Z,1.30
2022-12-31T11:18:30.139Z,2.60
2022-12-31T11:21:41.782Z,1.33
2022-12-31T11:25:01.974Z,2.35
2022-12-31T11:28:08.979Z,2.20
2022-12-31T11:31:12.897Z,1.70
2022-12-31T11:34:14.295Z,1.92
2022-12-31T11:37:21.704Z,1.10
2022-12-31T11:40:28.799Z,2.00
2022-12-31T11:43:36.241Z,1.67
2022-12-31T11:46:47.922Z,1.67
2022-12-31T11:49:55.223Z,1.35
2022-12-31T11:52:59.533Z,1.27
2022-12-31T11:56:09.719Z,1.23
2022-12-31T11:59:18.528Z,1.65
2022-12-31T12:02:24.425Z,1.60
2022-12-31T12:05:26.105Z,1.98
2022-12-31T12:08:30.175Z,1.60
2022-12-31T12:11:34.131Z,1.90
2022-12-31T12:14:36.388Z,1.17
2022-12-31T12:17:39.186Z,1.25
2022-12-31T12:20:41.095Z,1.27
2022-12-31T12:23:53.508Z,1.38
2022-12-31T12:26:55.271Z,1.48
2022-12-31T12:29:56.872Z,1.17
2022-12-31T12:32:59.304Z,2.30
2022-12-31T12:36:07.852Z,2.28
2022-12-31T12:39:18.691Z,1.20
2022-12-31T12:42:19.968Z,1.95
2022-12-31T12:45:25.855Z,1.45
2022-12-31T12:48:30.149Z,2.88
2022-12-31T12:51:45.424Z,2.67
2022-12-31T12:54:58.226Z,1.20
2022-12-31T12:58:19.381Z,1.42
2022-12-31T13:01:23.907Z,1.75
2022-12-31T13:04:43.412Z,2.10
2022-12-31T13:07:54.364Z,1.30
2022-12-31T13:10:55.634Z,0.82
2022-12-31T13:14:11.218Z,1.48
2022-12-31T13:17:18.812Z,1.30
2022-12-31T13:20:25.333Z,2.75
2022-12-31T13:23:34.820Z,1.88
2022-12-31T13:26:46.758Z,2.63
2022-12-31T13:29:48.610Z,1.38
2022-12-31T13:32:57.927Z,1.40
2022-12-31T13:36:04.627Z,1.77
2022-12-31T13:39:12.368Z,2.30
2022-12-31T13:42:20.675Z,1.40
2022-12-31T13:45:25.235Z,2.47
2022-12-31T13:48:32.293Z,2.03
2022-12-31T13:51:47.993Z,1.20
2022-12-31T13:55:04.694Z,1.27
2022-12-31T13:58:07.036Z,1.88
2022-12-31T14:01:32.038Z,2.17
2022-12-31T14:04:40.355Z,2.97
2022-12-31T14:07:51.385Z,2.15
2022-12-31T14:10:52.749Z,1.35
2022-12-31T14:14:16.677Z,1.75
2022-12-31T14:17:24.932Z,4.07
2022-12-31T14:20:35.382Z,2.40
2022-12-31T14:23:50.410Z,1.92
2022-12-31T14:26:54.970Z,3.90
2022-12-31T14:30:01.224Z,2.10
2022-12-31T14:33:08.726Z,1.50
2022-12-31T14:36:18.339Z,2.67
2022-12-31T14:39:27.154Z,1.52
2022-12-31T14:42:36.305Z,2.30
2022-12-31T14:45:55.916Z,2.10
2022-12-31T14:49:16.073Z,1.48
2022-12-31T14:52:30.543Z,1.73
2022-12-31T14:55:33.724Z,1.70
2022-12-31T14:58:36.557Z,1.73
2022-12-31T15:01:44.713Z,1.77
2022-12-31T15:04:46.339Z,0.88
2022-12-31T15:07:47.591Z,1.30
2022-12-31T15:10:48.966Z,1.25
2022-12-31T15:14:17.591Z,1.50
2022-12-31T15:17:37.487Z,0.93
2022-12-31T15:20:50.766Z,1.48
2022-12-31T15:23:52.296Z,2.35
2022-12-31T15:27:01.261Z,1.35
2022-12-31T15:30:03.918Z,1.33
2022-12-31T15:33:07.734Z,1.15
2022-12-31T15:36:11.984Z,1.63
2022-12-31T15:39:13.301Z,1.60
2022-12-31T15:42:41.371Z,0.98
2022-12-31T15:45:48.187Z,1.27
2022-12-31T15:48:55.416Z,1.63
2022-12-31T15:52:04.656Z,2.17
2022-12-31T15:55:06.486Z,1.70
2022-12-31T15:58:11.249Z,2.13
2022-12-31T16:01:15.356Z,1.83
2022-12-31T16:04:23.946Z,1.40
2022-12-31T16:07:27.310Z,2.67
2022-12-31T16:10:32.378Z,2.20
2022-12-31T16:13:35.450Z,3.05
2022-12-31T16:16:36.787Z,1.50
2022-12-31T16:19:46.128Z,2.38
2022-12-31T16:23:01.600Z,1.70
2022-12-31T16:26:04.333Z,1.20
2022-12-31T16:29:07.666Z,3.13
2022-12-31T16:32:14.447Z,2.10
2022-12-31T16:35:23.639Z,1.80
2022-12-31T16:38:32.628Z,4.07
2022-12-31T16:41:43.462Z,1.88
2022-12-31T16:44:44.799Z,14.75
2022-12-31T16:47:46.156Z,2.35
2022-12-31T16:50:49.131Z,1.83
2022-12-31T16:53:51.533Z,2.45
2022-12-31T16:56:52.918Z,2.72
2022-12-31T16:59:55.786Z,2.28
2022-12-31T17:03:14.106Z,1.83
2022-12-31T17:06:16.793Z,1.75
2022-12-31T17:09:20.924Z,1.98
2022-12-31T17:15:40.344Z,2.15
2022-12-31T17:18:43.826Z,3.45
2022-12-31T17:21:47.377Z,1.85
2022-12-31T17:24:49.215Z,2.40
2022-12-31T17:28:00.704Z,3.22
2022-12-31T17:31:02.460Z,1.80
2022-12-31T17:34:05.304Z,1.95
2022-12-31T17:37:06.651Z,2.90
2022-12-31T17:40:50.573Z,2.03
2022-12-31T17:43:51.668Z,1.25
2022-12-31T17:46:53.540Z,2.58
2022-12-31T17:49:59.571Z,2.10
2022-12-31T17:53:11.401Z,2.42
2022-12-31T17:56:18.138Z,2.42
2022-12-31T17:59:22.403Z,2.95
2022-12-31T18:02:23.822Z,2.13
2022-12-31T18:05:25.886Z,2.55
2022-12-31T18:08:27.253Z,4.10
2022-12-31T18:11:28.731Z,2.70
2022-12-31T18:14:30.012Z,3.90
2022-12-31T18:17:33.228Z,4.38
2022-12-31T18:20:34.584Z,4.10
2022-12-31T18:23:41.506Z,3.90
2022-12-31T18:26:42.764Z,3.55
2022-12-31T18:29:44.230Z,3.67
2022-12-31T18:32:46.017Z,3.35
2022-12-31T18:36:08.309Z,7.50
2022-12-31T18:39:09.711Z,4.28
2022-12-31T18:42:12.105Z,5.85
2022-12-31T18:45:15.698Z,4.85
2022-12-31T18:48:17.394Z,6.28
2022-12-31T18:51:27.854Z,5.63
2022-12-31T18:54:32.515Z,5.47
2022-12-31T18:57:33.826Z,5.00
2022-12-31T19:00:35.264Z,5.15
2022-12-31T19:03:36.647Z,5.45
2022-12-31T19:06:37.913Z,5.68
2022-12-31T19:09:48.333Z,3.85
2022-12-31T19:12:51.579Z,4.18
2022-12-31T19:15:53.032Z,5.57
2022-12-31T19:18:54.268Z,4.60
2022-12-31T19:21:55.558Z,5.22
2022-12-31T19:24:56.860Z,3.60
2022-12-31T19:27:58.172Z,4.45
2022-12-31T19:30:59.409Z,4.22
2022-12-31T19:34:00.642Z,4.05
2022-12-31T19:37:01.974Z,4.38
2022-12-31T19:40:03.343Z,4.10
2022-12-31T19:43:04.698Z,3.70
2022-12-31T19:46:06.019Z,4.80
2022-12-31T19:49:07.339Z,4.18
2022-12-31T19:52:08.593Z,3.67
2022-12-31T19:55:12.326Z,4.88
2022-12-31T19:58:18.623Z,3.40
2022-12-31T20:01:21.276Z,6.10
2022-12-31T20:04:22.695Z,4.68
2022-12-31T20:07:27.251Z,5.00
2022-12-31T20:10:28.768Z,5.10
2022-12-31T20:13:30.045Z,6.18
2022-12-31T20:16:32.185Z,5.20
2022-12-31T20:19:34.056Z,4.18
2022-12-31T20:22:35.354Z,4.70
2022-12-31T20:25:36.607Z,8.23
2022-12-31T20:28:37.903Z,3.83
2022-12-31T20:31:39.630Z,4.90
2022-12-31T20:34:40.942Z,4.78
2022-12-31T20:37:42.228Z,6.28
2022-12-31T20:40:46.856Z,6.50
2022-12-31T20:43:49.529Z,5.47
2022-12-31T20:46:50.872Z,6.32
2022-12-31T20:50:10.902Z,5.35
2022-12-31T20:53:12.664Z,5.03
2022-12-31T20:56:14.149Z,5.90
2022-12-31T20:59:15.464Z,4.88
2022-12-31T21:02:21.301Z,4.60
2022-12-31T21:05:23.321Z,4.30
2022-12-31T21:08:29.637Z,7.07
2022-12-31T21:11:52.713Z,7.78
2022-12-31T21:14:53.986Z,5.78
2022-12-31T21:17:55.508Z,5.28
2022-12-31T21:20:56.931Z,4.50
2022-12-31T21:23:58.209Z,5.97
2022-12-31T21:26:59.522Z,7.68
2022-12-31T21:33:22.089Z,5.35
2022-12-31T21:36:23.416Z,5.93
2022-12-31T21:39:24.679Z,5.60
2022-12-31T21:42:25.925Z,4.50
2022-12-31T21:45:27.211Z,5.18
2022-12-31T21:48:28.520Z,7.10
2022-12-31T21:51:29.869Z,5.45
2022-12-31T21:54:49.934Z,5.70
2022-12-31T21:58:24.665Z,6.00
2022-12-31T22:01:36.374Z,5.28
2022-12-31T22:05:01.973Z,4.60
2022-12-31T22:07:59.094Z,6.82
2022-12-31T22:11:00.423Z,6.45
2022-12-31T22:14:01.767Z,5.63
2022-12-31T22:17:03.049Z,6.72
2022-12-31T22:23:25.789Z,5.65
2022-12-31T22:26:28.809Z,6.18
2022-12-31T22:29:30.107Z,6.90
2022-12-31T22:32:31.359Z,6.03
2022-12-31T22:35:32.632Z,7.95
